createdAt,value
2018-02-06T00:00:46.848Z,60
2018-02-06T00:01:46.771Z,59.5
2018-02-06T00:02:46.691Z,59.8
2018-02-06T00:03:46.615Z,59.6
2018-02-06T00:04:46.555Z,59.4
2018-02-06T00:05:46.438Z,59.6
2018-02-06T00:06:46.360Z,59.5
2018-02-06T00:07:46.301Z,59.6
2018-02-06T00:08:46.226Z,59.6
2018-02-06T00:09:46.163Z,59.6
2018-02-06T00:10:46.049Z,59.4
2018-02-06T00:11:45.990Z,59.6
2018-02-06T00:12:45.912Z,59.6
2018-02-06T00:13:45.834Z,59.6
2018-02-06T00:14:45.772Z,59.5
2018-02-06T00:15:45.662Z,59.6
2018-02-06T00:16:45.582Z,59.7
2018-02-06T00:17:45.539Z,59.5
2018-02-06T00:18:45.447Z,59.6
2018-02-06T00:19:45.366Z,59.5
2018-02-06T00:20:45.289Z,59.6
2018-02-06T00:21:45.210Z,59.5
2018-02-06T00:22:45.155Z,59.6
2018-02-06T00:23:45.057Z,59.5
2018-02-06T00:24:44.985Z,59.5
2018-02-06T00:25:44.880Z,59.5
2018-02-06T00:26:44.836Z,59.5
2018-02-06T00:27:44.722Z,59.5
2018-02-06T00:28:44.684Z,59.4
2018-02-06T00:29:44.589Z,59.5
2018-02-06T00:30:44.532Z,59.4
2018-02-06T00:31:44.415Z,59.4
2018-02-06T00:32:44.352Z,59.4
2018-02-06T00:33:44.276Z,59.4
2018-02-06T00:34:44.195Z,59.4
2018-02-06T00:35:44.122Z,59.4
2018-02-06T00:36:44.064Z,59.4
2018-02-06T00:37:43.943Z,59.4
2018-02-06T00:38:43.886Z,59.4
2018-02-06T00:39:43.822Z,59.4
2018-02-06T00:40:43.709Z,59.4
2018-02-06T00:41:43.664Z,59.4
2018-02-06T00:42:43.552Z,59.3
2018-02-06T00:43:43.493Z,59.4
2018-02-06T00:44:43.417Z,59.3
2018-02-06T00:45:43.337Z,59.3
2018-02-06T00:46:43.240Z,59.3
2018-02-06T00:47:43.198Z,59.3
2018-02-06T00:48:43.082Z,59.3
2018-02-06T00:49:43.041Z,59.3
2018-02-06T00:50:42.948Z,59.3
2018-02-06T00:51:42.867Z,59.3
2018-02-06T00:52:42.770Z,59.3
2018-02-06T00:53:42.732Z,59.3
2018-02-06T00:54:42.634Z,59.3
2018-02-06T00:55:42.558Z,59.2
2018-02-06T00:56:42.476Z,59.3
2018-02-06T00:57:42.380Z,59.3
2018-02-06T00:58:42.343Z,59.2
2018-02-06T00:59:42.222Z,59.2
2018-02-06T01:00:42.186Z,59.1
2018-02-06T01:01:42.088Z,58.6
2018-02-06T01:02:42.010Z,58.9
2018-02-06T01:03:41.936Z,58.8
2018-02-06T01:04:41.839Z,58.5
2018-02-06T01:05:41.790Z,58.8
2018-02-06T01:06:41.698Z,58.6
2018-02-06T01:07:41.617Z,58.9
2018-02-06T01:08:41.524Z,58.8
2018-02-06T01:09:41.478Z,58.8
2018-02-06T01:10:41.401Z,58.7
2018-02-06T01:11:41.306Z,58.7
2018-02-06T01:12:41.234Z,58.9
2018-02-06T01:13:41.150Z,58.8
2018-02-06T01:14:41.077Z,58.7
2018-02-06T01:15:41.017Z,58.7
2018-02-06T01:16:40.897Z,58.8
2018-02-06T01:17:40.854Z,58.8
2018-02-06T01:18:40.759Z,58.7
2018-02-06T01:19:40.685Z,58.8
2018-02-06T01:20:40.622Z,58.7
2018-02-06T01:21:40.506Z,58.8
2018-02-06T01:22:40.450Z,58.8
2018-02-06T01:23:40.377Z,58.8
2018-02-06T01:24:40.303Z,58.7
2018-02-06T01:25:40.239Z,58.7
2018-02-06T01:26:40.171Z,58.8
2018-02-06T01:27:40.099Z,58.7
2018-02-06T01:28:40.033Z,58.7
2018-02-06T01:29:39.940Z,58.7
2018-02-06T01:30:39.909Z,58.8
2018-02-06T01:31:39.802Z,58.7
2018-02-06T01:32:39.770Z,58.7
2018-02-06T01:33:39.686Z,58.7
2018-02-06T01:34:39.604Z,58.7
2018-02-06T01:35:39.596Z,58.7
2018-02-06T01:36:39.477Z,58.6
2018-02-06T01:37:39.415Z,58.7
2018-02-06T01:38:39.345Z,58.6
2018-02-06T01:39:39.271Z,58.6
2018-02-06T01:40:39.192Z,58.6
2018-02-06T01:41:39.151Z,58.6
2018-02-06T01:42:39.046Z,58.6
2018-02-06T01:43:39.002Z,58.6
2018-02-06T01:44:38.930Z,58.6
2018-02-06T01:45:38.858Z,58.6
2018-02-06T01:46:38.792Z,58.6
2018-02-06T01:47:38.739Z,58.6
2018-02-06T01:48:38.640Z,58.6
2018-02-06T01:49:38.584Z,58.6
2018-02-06T01:50:38.531Z,58.6
2018-02-06T01:51:38.428Z,58.6
2018-02-06T01:52:38.394Z,58.6
2018-02-06T01:53:38.295Z,58.6
2018-02-06T01:54:38.239Z,58.6
2018-02-06T01:55:38.173Z,58.6
2018-02-06T01:56:38.103Z,58.6
2018-02-06T01:57:38.037Z,58.6
2018-02-06T01:58:37.945Z,58.6
2018-02-06T01:59:37.911Z,58.6
2018-02-06T02:00:37.813Z,58.5
2018-02-06T02:01:37.756Z,58
2018-02-06T02:02:37.694Z,58
2018-02-06T02:03:37.635Z,58.1
2018-02-06T02:04:37.533Z,57.7
2018-02-06T02:05:37.482Z,57.7
2018-02-06T02:06:37.414Z,57.7
2018-02-06T02:07:37.346Z,57.9
2018-02-06T02:08:37.323Z,58.1
2018-02-06T02:09:37.194Z,57.9
2018-02-06T02:10:37.123Z,57.9
2018-02-06T02:11:37.087Z,57.9
2018-02-06T02:12:37.206Z,58.1
2018-02-06T02:13:36.938Z,58
2018-02-06T02:14:36.864Z,57.8
2018-02-06T02:15:36.778Z,57.9
2018-02-06T02:16:36.751Z,57.9
2018-02-06T02:17:36.661Z,58.1
2018-02-06T02:18:36.589Z,57.9
2018-02-06T02:19:36.503Z,57.9
2018-02-06T02:20:36.468Z,57.9
2018-02-06T02:21:36.365Z,57.9
2018-02-06T02:22:36.315Z,58
2018-02-06T02:23:36.248Z,57.9
2018-02-06T02:24:36.193Z,57.9
2018-02-06T02:25:36.090Z,57.9
2018-02-06T02:26:36.040Z,57.9
2018-02-06T02:27:35.978Z,57.9
2018-02-06T02:28:35.904Z,57.9
2018-02-06T02:29:35.839Z,57.9
2018-02-06T02:30:35.748Z,57.9
2018-02-06T02:31:35.703Z,57.9
2018-02-06T02:32:35.627Z,57.9
2018-02-06T02:33:35.576Z,57.9
2018-02-06T02:34:35.471Z,57.9
2018-02-06T02:35:35.438Z,57.9
2018-02-06T02:36:35.334Z,57.9
2018-02-06T02:37:35.282Z,57.9
2018-02-06T02:38:35.217Z,57.9
2018-02-06T02:39:35.146Z,57.8
2018-02-06T02:40:35.062Z,57.9
2018-02-06T02:41:35.025Z,57.8
2018-02-06T04:38:26.962Z,45.3
2018-02-06T04:39:26.906Z,45.4
2018-02-06T04:40:26.802Z,45.5
2018-02-06T04:41:26.757Z,45.6
2018-02-06T04:42:26.684Z,45.6
2018-02-06T04:43:26.617Z,45.7
2018-02-06T04:44:26.547Z,45.9
2018-02-06T04:45:26.498Z,45.9
2018-02-06T04:46:26.424Z,46
2018-02-06T04:47:26.326Z,46.1
2018-02-06T04:48:26.276Z,46.1
2018-02-06T04:49:26.202Z,46.3
2018-02-06T04:50:26.134Z,46.3
2018-02-06T04:51:26.066Z,46.4
2018-02-06T04:52:26.012Z,46.4
2018-02-06T04:53:25.907Z,46.6
2018-02-06T04:54:25.859Z,46.6
2018-02-06T04:55:25.804Z,46.7
2018-02-06T04:56:25.700Z,46.8
2018-02-06T04:57:25.666Z,46.9
2018-02-06T04:58:25.562Z,46.9
2018-02-06T04:59:25.521Z,47
2018-02-06T05:00:25.445Z,47.1
2018-02-06T05:01:25.377Z,46.6
2018-02-06T05:02:25.286Z,46.4
2018-02-06T05:03:25.253Z,46.8
2018-02-06T05:04:25.147Z,46.6
2018-02-06T05:05:25.116Z,46.8
2018-02-06T05:06:25.030Z,46.8
2018-02-06T05:07:24.962Z,47
2018-02-06T05:08:24.887Z,47.1
2018-02-06T05:09:24.843Z,47.2
2018-02-06T05:10:24.755Z,47.3
2018-02-06T05:11:24.688Z,47
2018-02-06T05:12:24.624Z,47.1
2018-02-06T05:13:24.530Z,47.2
2018-02-06T05:14:24.496Z,47.3
2018-02-06T05:15:24.411Z,47.3
2018-02-06T05:16:24.345Z,47.4
2018-02-06T05:17:24.291Z,47.6
2018-02-06T05:18:24.221Z,47.6
2018-02-06T05:19:24.118Z,47.8
2018-02-06T05:20:24.067Z,47.8
2018-02-06T05:21:23.999Z,47.9
2018-02-06T05:22:23.950Z,48.1
2018-02-06T05:23:23.842Z,48.2
2018-02-06T05:24:23.793Z,48.3
2018-02-06T05:25:23.725Z,48.3
2018-02-06T05:26:23.662Z,48.4
2018-02-06T05:27:23.602Z,48.5
2018-02-06T05:28:23.499Z,48.5
2018-02-06T05:29:23.429Z,48.3
2018-02-06T05:30:23.396Z,48.3
2018-02-06T05:31:23.314Z,48.2
2018-02-06T05:32:23.241Z,48.1
2018-02-06T05:33:23.175Z,48.1
2018-02-06T05:34:23.088Z,47.9
2018-02-06T05:35:23.052Z,48.1
2018-02-06T05:36:22.968Z,47.4
2018-02-06T05:37:22.898Z,47.3
2018-02-06T05:38:22.810Z,47.6
2018-02-06T05:39:22.781Z,47
2018-02-06T05:40:22.673Z,46.6
2018-02-06T05:41:22.639Z,46.8
2018-02-06T05:42:22.553Z,47.1
2018-02-06T05:43:22.491Z,46.9
2018-02-06T05:44:22.416Z,47.3
2018-02-06T05:45:22.329Z,46.9
2018-02-06T05:46:22.295Z,47.2
2018-02-06T05:47:22.200Z,46.9
2018-02-06T05:48:22.162Z,45.4
2018-02-06T05:49:22.074Z,45.9
2018-02-06T05:50:21.985Z,45.1
2018-02-06T05:51:21.952Z,45.1
2018-02-06T05:52:21.867Z,44.9
2018-02-06T05:53:21.799Z,44.8
2018-02-06T05:54:21.733Z,45.2
2018-02-06T05:55:21.661Z,45.2
2018-02-06T05:56:21.573Z,45.6
2018-02-06T05:57:21.546Z,45.4
2018-02-06T05:58:21.437Z,45.7
2018-02-06T05:59:21.388Z,45.9
2018-02-06T06:00:21.328Z,45.9
2018-02-06T06:01:21.270Z,44.9
2018-02-06T06:02:21.203Z,44.8
2018-02-06T06:03:21.154Z,45.4
2018-02-06T06:04:21.052Z,44.6
2018-02-06T06:05:20.996Z,44.6
2018-02-06T06:06:20.943Z,44.8
2018-02-06T06:07:20.844Z,45.1
2018-02-06T06:08:20.808Z,45.2
2018-02-06T06:09:20.704Z,45.3
2018-02-06T06:10:20.655Z,45.4
2018-02-06T06:11:20.588Z,45.4
2018-02-06T06:12:20.498Z,45.8
2018-02-06T06:13:20.465Z,45.9
2018-02-06T06:14:20.380Z,45.9
2018-02-06T06:15:20.312Z,45.9
2018-02-06T06:16:20.245Z,46.2
2018-02-06T06:17:20.159Z,46.4
2018-02-06T06:18:20.126Z,46.4
2018-02-06T06:19:20.043Z,46.5
2018-02-06T06:20:19.967Z,46.6
2018-02-06T06:21:19.881Z,46.8
2018-02-06T06:22:19.811Z,46.8
2018-02-06T06:23:19.778Z,47
2018-02-06T06:24:19.701Z,47.1
2018-02-06T06:25:19.624Z,47.2
2018-02-06T06:26:19.556Z,47.3
2018-02-06T06:27:19.499Z,47.4
2018-02-06T06:28:19.486Z,47.6
2018-02-06T06:29:19.336Z,47.6
2018-02-06T06:30:19.267Z,47.8
2018-02-06T06:31:19.221Z,47.8
2018-02-06T06:32:19.144Z,47.9
2018-02-06T06:33:19.093Z,48
2018-02-06T06:34:18.987Z,48.1
2018-02-06T06:35:18.948Z,48.3
2018-02-06T06:36:18.869Z,48.3
2018-02-06T06:37:18.800Z,48.4
2018-02-06T06:38:18.747Z,48.5
2018-02-06T06:39:18.646Z,48.6
2018-02-06T06:40:18.609Z,48.8
2018-02-06T06:41:18.505Z,48.8
2018-02-06T06:42:18.455Z,48.9
2018-02-06T06:43:18.390Z,49
2018-02-06T06:44:18.318Z,49.1
2018-02-06T06:45:18.250Z,49.2
2018-02-06T06:46:18.160Z,49.3
2018-02-06T06:47:18.112Z,49.4
2018-02-06T06:48:18.044Z,49.5
2018-02-06T06:49:17.991Z,49.6
2018-02-06T06:50:17.887Z,49.7
2018-02-06T06:51:17.855Z,49.8
2018-02-06T06:52:17.756Z,49.9
2018-02-06T06:53:17.701Z,49.9
2018-02-06T06:54:17.635Z,50.1
2018-02-06T06:55:17.561Z,50.2
2018-02-06T06:56:17.477Z,50.2
2018-02-06T06:57:17.440Z,50.2
2018-02-06T06:58:17.346Z,50.3
2018-02-06T06:59:17.303Z,50.3
2018-02-06T07:00:17.218Z,50.2
2018-02-06T07:01:17.158Z,49.8
2018-02-06T07:02:17.101Z,49.4
2018-02-06T07:03:17.012Z,49.8
2018-02-06T07:04:16.942Z,49.4
2018-02-06T07:05:16.875Z,49.5
2018-02-06T07:06:16.803Z,49.4
2018-02-06T07:07:16.717Z,49.6
2018-02-06T07:08:16.682Z,49.7
2018-02-06T07:09:16.584Z,49.6
2018-02-06T07:10:16.530Z,49.8
2018-02-06T07:11:16.460Z,49.6
2018-02-06T07:12:16.393Z,49.9
2018-02-06T07:13:16.322Z,49.8
2018-02-06T07:14:16.286Z,49.8
2018-02-06T07:15:16.208Z,49.8
2018-02-06T07:16:16.121Z,49.9
2018-02-06T07:17:16.047Z,50
2018-02-06T07:18:15.995Z,49.9
2018-02-06T07:19:15.893Z,50.1
2018-02-06T07:20:15.858Z,50
2018-02-06T07:21:15.777Z,50.1
2018-02-06T07:22:15.704Z,50.1
2018-02-06T07:23:15.635Z,50.1
2018-02-06T07:24:15.574Z,50.2
2018-02-06T07:25:15.513Z,50.2
2018-02-06T07:26:15.445Z,50.3
2018-02-06T07:27:15.339Z,50.3
2018-02-06T07:28:15.290Z,50.4
2018-02-06T07:29:15.222Z,50.4
2018-02-06T07:30:15.170Z,50.4
2018-02-06T07:31:15.065Z,50.5
2018-02-06T07:32:15.015Z,50.5
2018-02-06T07:33:14.946Z,50.6
2018-02-06T07:34:14.879Z,50.6
2018-02-06T07:35:14.824Z,50.6
2018-02-06T07:36:14.722Z,50.6
2018-02-06T07:37:14.686Z,50.8
2018-02-06T07:38:14.586Z,50.8
2018-02-06T07:39:14.535Z,50.9
2018-02-06T07:40:14.465Z,51.1
2018-02-06T07:41:14.395Z,51.3
2018-02-06T07:42:14.345Z,51.3
2018-02-06T07:43:14.241Z,51.3
2018-02-06T07:44:14.192Z,51.4
2018-02-06T07:45:14.121Z,51.3
2018-02-06T07:46:14.073Z,51.3
2018-02-06T07:47:13.963Z,51.4
2018-02-06T07:48:13.971Z,51.4
2018-02-06T07:49:13.825Z,51.5
2018-02-06T07:50:13.826Z,51.6
2018-02-06T07:51:13.708Z,51.7
2018-02-06T07:52:13.639Z,51.8
2018-02-06T07:53:13.550Z,51.9
2018-02-06T07:54:13.516Z,51.9
2018-02-06T07:55:13.464Z,52
2018-02-06T07:56:13.378Z,52.1
2018-02-06T07:57:13.294Z,52.2
2018-02-06T07:58:13.205Z,52.3
2018-02-06T07:59:13.171Z,52.3
2018-02-06T08:00:13.087Z,52.4
2018-02-06T08:01:13.017Z,52.3
2018-02-06T08:02:12.949Z,52.1
2018-02-06T08:03:12.878Z,52.6
2018-02-06T08:04:12.798Z,52.4
2018-02-06T08:05:12.762Z,52.5
2018-02-06T08:06:12.674Z,52.6
2018-02-06T08:07:12.620Z,52.6
2018-02-06T08:08:12.517Z,52.9
2018-02-06T08:09:12.482Z,52.9
2018-02-06T08:10:12.386Z,53
2018-02-06T08:11:12.327Z,53.1
2018-02-06T08:12:12.262Z,53.3
2018-02-06T08:13:12.207Z,53.4
2018-02-06T08:14:12.124Z,53.4
2018-02-06T08:15:12.055Z,53.6
2018-02-06T08:16:11.985Z,53.6
2018-02-06T08:17:11.923Z,53.8
2018-02-06T08:18:11.863Z,53.9
2018-02-06T08:19:11.758Z,54
2018-02-06T08:20:11.691Z,54.1
2018-02-06T08:21:11.656Z,54.3
2018-02-06T08:22:11.572Z,54.4
2018-02-06T08:23:11.546Z,54.5
2018-02-06T08:24:11.435Z,54.6
2018-02-06T08:25:11.345Z,54.8
2018-02-06T08:26:11.312Z,54.8
2018-02-06T08:27:11.228Z,54.9
2018-02-06T08:28:11.158Z,55.1
2018-02-06T08:29:11.070Z,55.3
2018-02-06T08:30:11.010Z,55.3
2018-02-06T08:31:10.969Z,55.4
2018-02-06T08:32:10.887Z,55.6
2018-02-06T08:33:10.816Z,55.7
2018-02-06T08:34:10.753Z,55.8
2018-02-06T08:35:10.677Z,55.9
2018-02-06T08:36:10.594Z,56.1
2018-02-06T08:37:10.557Z,56.3
2018-02-06T08:38:10.488Z,56.4
2018-02-06T08:39:10.404Z,56.5
2018-02-06T08:40:10.333Z,56.6
2018-02-06T08:41:10.294Z,56.7
2018-02-06T08:42:10.210Z,56.9
2018-02-06T08:43:10.130Z,57
2018-02-06T08:44:10.061Z,57.1
2018-02-06T08:45:09.997Z,57.3
2018-02-06T08:46:09.906Z,57.4
2018-02-06T08:47:09.867Z,57.5
2018-02-06T08:48:09.797Z,57.6
2018-02-06T08:49:09.693Z,57.8
2018-02-06T08:50:09.650Z,57.9
2018-02-06T08:51:09.582Z,58.1
2018-02-06T08:52:09.505Z,58.2
2018-02-06T08:53:09.441Z,58.3
2018-02-06T08:54:09.349Z,58.4
2018-02-06T08:55:09.301Z,58.5
2018-02-06T08:56:09.232Z,58.7
2018-02-06T08:57:09.178Z,58.8
2018-02-06T08:58:09.074Z,58.9
2018-02-06T08:59:09.040Z,59.1
2018-02-06T09:00:08.936Z,59.2
2018-02-06T09:01:08.886Z,59.3
2018-02-06T09:02:08.798Z,59.3
2018-02-06T09:03:08.765Z,59.5
2018-02-06T09:04:08.685Z,59.6
2018-02-06T09:05:08.609Z,59.7
2018-02-06T09:06:08.542Z,59.8
2018-02-06T09:07:08.472Z,59.9
2018-02-06T09:08:08.386Z,60
2018-02-06T09:09:08.351Z,60.1
2018-02-06T09:10:08.266Z,60.3
2018-02-06T09:11:08.179Z,60.3
2018-02-06T09:12:08.145Z,60.4
2018-02-06T09:13:08.041Z,60.6
2018-02-06T09:14:08.007Z,60.7
2018-02-06T09:15:07.928Z,60.8
2018-02-06T09:16:07.853Z,60.9
2018-02-06T09:17:07.835Z,61
2018-02-06T09:18:07.739Z,61.1
2018-02-06T09:19:07.629Z,61.3
2018-02-06T09:20:07.595Z,61.4
2018-02-06T09:21:07.492Z,61.5
2018-02-06T09:22:07.490Z,61.6
2018-02-06T09:23:07.373Z,61.8
2018-02-06T09:24:07.323Z,61.9
2018-02-06T09:25:07.217Z,61.9
2018-02-06T09:26:07.168Z,62.1
2018-02-06T09:27:07.097Z,62.2
2018-02-06T09:28:07.030Z,62.3
2018-02-06T09:29:06.977Z,62.4
2018-02-06T09:30:06.872Z,62.6
2018-02-06T09:31:06.839Z,62.7
2018-02-06T09:32:06.734Z,62.8
2018-02-06T09:33:06.685Z,62.9
2018-02-06T09:34:06.615Z,63
2018-02-06T09:35:06.556Z,63.1
2018-02-06T09:36:06.493Z,63.2
2018-02-06T09:37:06.390Z,63.3
2018-02-06T09:38:06.346Z,63.4
2018-02-06T09:39:06.274Z,63.6
2018-02-06T09:40:06.218Z,63.7
2018-02-06T09:41:06.116Z,63.8
2018-02-06T09:42:06.045Z,63.9
2018-02-06T09:43:05.995Z,64
2018-02-06T09:44:05.928Z,64.1
2018-02-06T09:45:05.861Z,64.2
2018-02-06T09:46:05.793Z,64.4
2018-02-06T09:47:05.702Z,64.4
2018-02-06T09:48:05.669Z,64.6
2018-02-06T09:49:05.564Z,64.7
2018-02-06T09:50:05.516Z,64.8
2018-02-06T09:51:05.445Z,64.9
2018-02-06T09:52:05.358Z,65
2018-02-06T09:53:05.331Z,65.1
2018-02-06T09:54:05.241Z,65.2
2018-02-06T09:55:05.173Z,65.3
2018-02-06T09:56:05.106Z,65.4
2018-02-06T09:57:05.039Z,65.6
2018-02-06T09:58:04.980Z,65.6
2018-02-06T09:59:04.893Z,65.8
2018-02-06T10:00:04.827Z,65.9
2018-02-06T10:01:04.772Z,65.9
2018-02-06T10:02:04.673Z,66
2018-02-06T10:03:04.635Z,66.1
2018-02-06T10:04:04.531Z,66.3
2018-02-06T10:05:04.480Z,66.3
2018-02-06T10:06:04.428Z,66.4
2018-02-06T10:07:04.323Z,66.4
2018-02-06T10:08:04.274Z,66.6
2018-02-06T10:09:04.206Z,66.7
2018-02-06T10:10:04.201Z,66.8
2018-02-06T10:11:04.068Z,66.9
2018-02-06T10:12:04.016Z,66.9
2018-02-06T10:13:03.918Z,67
2018-02-06T10:14:03.884Z,67.1
2018-02-06T10:15:03.793Z,67.2
2018-02-06T10:16:03.723Z,67.3
2018-02-06T10:17:03.656Z,67.3
2018-02-06T10:18:03.591Z,67.4
2018-02-06T10:19:03.498Z,67.5
2018-02-06T10:20:03.465Z,67.6
2018-02-06T10:21:03.379Z,67.7
2018-02-06T10:22:03.290Z,67.8
2018-02-06T10:23:03.258Z,67.9
2018-02-06T10:24:03.153Z,67.9
2018-02-06T10:25:03.121Z,68
2018-02-06T10:26:03.035Z,68.1
2018-02-06T10:27:02.981Z,68.2
2018-02-06T10:28:02.897Z,68.3
2018-02-06T10:29:02.826Z,68.4
2018-02-06T10:30:02.775Z,68.5
2018-02-06T10:31:02.669Z,68.6
2018-02-06T10:32:02.638Z,68.7
2018-02-06T10:33:02.552Z,68.8
2018-02-06T10:34:02.491Z,68.9
2018-02-06T10:35:02.394Z,68.9
2018-02-06T10:36:02.362Z,69.1
2018-02-06T10:37:02.285Z,69.2
2018-02-06T10:38:02.208Z,69.3
2018-02-06T10:39:02.145Z,69.3
2018-02-06T10:40:02.054Z,69.4
2018-02-06T10:41:02.017Z,69.5
2018-02-06T10:42:01.949Z,69.6
2018-02-06T10:43:01.845Z,69.7
2018-02-06T10:44:01.850Z,69.8
2018-02-06T10:45:01.725Z,69.9
2018-02-06T10:46:01.657Z,69.9
2018-02-06T10:47:01.603Z,70
2018-02-06T10:48:01.499Z,70.1
2018-02-06T10:49:01.497Z,70.2
2018-02-06T10:50:01.381Z,70.3
2018-02-06T10:51:01.330Z,70.4
2018-02-06T10:52:01.228Z,70.4
2018-02-06T10:53:01.189Z,70.6
2018-02-06T10:54:01.102Z,70.6
2018-02-06T10:55:01.035Z,70.7
2018-02-06T10:56:00.990Z,70.8
2018-02-06T10:57:00.885Z,70.9
2018-02-06T10:58:00.827Z,70.9
2018-02-06T10:59:00.812Z,71.1
2018-02-06T11:00:00.695Z,71.1
2018-02-06T11:01:00.622Z,71.2
2018-02-06T11:02:00.532Z,71.3
2018-02-06T11:03:00.482Z,71.4
2018-02-06T11:04:00.417Z,71.4
2018-02-06T11:05:00.362Z,71.5
2018-02-06T11:06:00.256Z,71.5
2018-02-06T11:07:00.225Z,71.6
2018-02-06T11:08:00.120Z,71.7
2018-02-06T11:09:00.069Z,71.8
2018-02-06T11:10:00.001Z,71.8
2018-02-06T11:10:59.932Z,71.8
2018-02-06T11:11:59.843Z,71.9
2018-02-06T11:12:59.812Z,71.9
2018-02-06T11:13:59.705Z,72.1
2018-02-06T11:14:59.673Z,72.1
2018-02-06T11:15:59.587Z,72.1
2018-02-06T11:16:59.519Z,72.3
2018-02-06T11:17:59.466Z,72.3
2018-02-06T11:18:59.382Z,72.3
2018-02-06T11:19:59.359Z,72.4
2018-02-06T11:20:59.245Z,72.5
2018-02-06T11:21:59.176Z,72.5
2018-02-06T11:22:59.086Z,72.6
2018-02-06T11:23:59.052Z,72.6
2018-02-06T11:24:58.948Z,72.8
2018-02-06T11:25:58.899Z,72.8
2018-02-06T11:26:58.829Z,72.8
2018-02-06T11:27:58.761Z,72.9
2018-02-06T11:28:58.705Z,72.9
2018-02-06T11:29:58.654Z,72.9
2018-02-06T11:30:58.571Z,73
2018-02-06T11:31:58.487Z,73.1
2018-02-06T11:32:58.415Z,73.1
2018-02-06T11:33:58.367Z,73.2
2018-02-06T11:34:58.309Z,73.3
2018-02-06T11:35:58.229Z,73.3
2018-02-06T11:36:58.145Z,73.3
2018-02-06T11:37:58.071Z,73.4
2018-02-06T11:38:58.002Z,73.4
2018-02-06T11:39:57.942Z,73.4
2018-02-06T11:40:57.882Z,73.5
2018-02-06T11:41:57.815Z,73.6
2018-02-06T11:42:57.708Z,73.6
2018-02-06T11:43:57.658Z,73.6
2018-02-06T11:44:57.591Z,73.7
2018-02-06T11:45:57.537Z,73.8
2018-02-06T11:46:57.432Z,73.8
2018-02-06T11:47:57.385Z,73.9
2018-02-06T11:48:57.314Z,73.9
2018-02-06T11:49:57.246Z,73.9
2018-02-06T11:50:57.193Z,74
2018-02-06T11:51:57.087Z,74.1
2018-02-06T11:52:57.039Z,74.1
2018-02-06T11:53:56.968Z,74.1
2018-02-06T11:54:56.881Z,74.2
2018-02-06T11:55:56.848Z,74.3
2018-02-06T11:56:56.746Z,74.3
2018-02-06T11:57:56.697Z,74.3
2018-02-06T11:58:56.625Z,74.4
2018-02-06T11:59:56.536Z,74.4
2018-02-06T12:00:56.505Z,74.5
2018-02-06T12:01:56.417Z,74.5
2018-02-06T12:02:56.349Z,74.6
2018-02-06T12:03:56.280Z,74.6
2018-02-06T12:04:56.210Z,74.7
2018-02-06T12:05:56.158Z,74.7
2018-02-06T12:06:56.090Z,74.8
2018-02-06T12:07:55.984Z,74.8
2018-02-06T12:08:55.934Z,74.8
2018-02-06T12:09:55.866Z,74.8
2018-02-06T12:10:55.846Z,74.9
2018-02-06T12:11:55.731Z,74.9
2018-02-06T12:12:55.677Z,74.9
2018-02-06T12:13:55.589Z,75
2018-02-06T12:14:55.523Z,75
2018-02-06T12:15:55.520Z,75.1
2018-02-06T12:16:55.365Z,75.1
2018-02-06T12:17:55.332Z,75.1
2018-02-06T12:18:55.228Z,75.2
2018-02-06T12:19:55.183Z,75.2
2018-02-06T12:20:55.111Z,75.3
2018-02-06T12:21:55.048Z,75.3
2018-02-06T12:22:54.989Z,75.4
2018-02-06T12:23:54.883Z,75.4
2018-02-06T12:24:54.850Z,75.4
2018-02-06T12:25:54.746Z,75.5
2018-02-06T12:26:54.694Z,75.6
2018-02-06T12:27:54.638Z,75.6
2018-02-06T12:28:54.574Z,75.6
2018-02-06T12:29:54.489Z,75.7
2018-02-06T12:30:54.423Z,75.8
2018-02-06T12:31:54.353Z,75.8
2018-02-06T12:32:54.295Z,75.9
2018-02-06T12:33:54.233Z,75.9
2018-02-06T12:34:54.131Z,75.9
2018-02-06T12:35:54.057Z,76
2018-02-06T12:36:54.025Z,76
2018-02-06T12:37:53.938Z,76.1
2018-02-06T12:38:53.870Z,76.1
2018-02-06T12:39:53.799Z,76.1
2018-02-06T12:40:53.712Z,76.1
2018-02-06T12:41:53.679Z,76.2
2018-02-06T12:42:53.596Z,76.2
2018-02-06T12:43:53.523Z,76.3
2018-02-06T12:44:53.435Z,76.3
2018-02-06T12:45:53.367Z,76.3
2018-02-06T12:46:53.334Z,76.4
2018-02-06T12:47:53.249Z,76.4
2018-02-06T12:48:53.178Z,76.5
2018-02-06T12:49:53.127Z,76.5
2018-02-06T12:50:53.025Z,76.6
2018-02-06T12:51:53.023Z,76.6
2018-02-06T12:52:52.905Z,76.6
2018-02-06T12:53:52.839Z,76.6
2018-02-06T12:54:52.782Z,76.7
2018-02-06T12:55:52.681Z,76.8
2018-02-06T12:56:52.684Z,76.8
2018-02-06T12:57:52.560Z,76.8
2018-02-06T12:58:52.507Z,76.8
2018-02-06T12:59:52.406Z,76.9
2018-02-06T13:00:52.370Z,76.9
2018-02-06T13:01:52.284Z,76.9
2018-02-06T13:02:52.215Z,76.9
2018-02-06T13:03:52.153Z,77
2018-02-06T13:04:52.076Z,77
2018-02-06T13:05:51.988Z,77
2018-02-06T13:06:51.957Z,77
2018-02-06T13:07:51.851Z,77.1
2018-02-06T13:08:51.833Z,77.1
2018-02-06T13:09:51.732Z,77.1
2018-02-06T13:10:51.646Z,77.1
2018-02-06T13:11:51.613Z,77.1
2018-02-06T13:12:51.528Z,77.2
2018-02-06T13:13:51.457Z,77.2
2018-02-06T13:14:51.390Z,77.3
2018-02-06T13:15:51.325Z,77.3
2018-02-06T13:16:51.232Z,77.3
2018-02-06T13:17:51.163Z,77.4
2018-02-06T13:18:51.133Z,77.4
2018-02-06T13:19:51.047Z,77.4
2018-02-06T13:20:50.975Z,77.4
2018-02-06T13:21:50.909Z,77.4
2018-02-06T13:22:50.843Z,77.4
2018-02-06T13:23:50.751Z,77.5
2018-02-06T13:24:50.719Z,77.5
2018-02-06T13:25:50.631Z,77.5
2018-02-06T13:26:50.544Z,77.6
2018-02-06T13:27:50.512Z,77.6
2018-02-06T13:28:50.406Z,77.6
2018-02-06T13:29:50.378Z,77.6
2018-02-06T13:30:50.289Z,77.6
2018-02-06T13:31:50.229Z,77.7
2018-02-06T13:32:50.150Z,77.7
2018-02-06T13:33:50.099Z,77.7
2018-02-06T13:34:49.993Z,77.8
2018-02-06T13:35:49.962Z,77.8
2018-02-06T13:36:49.856Z,77.8
2018-02-06T13:37:49.856Z,77.8
2018-02-06T13:38:49.740Z,77.9
2018-02-06T13:39:49.687Z,77.9
2018-02-06T13:40:49.585Z,77.9
2018-02-06T13:41:49.532Z,77.9
2018-02-06T13:42:49.501Z,77.9
2018-02-06T13:43:49.395Z,78
2018-02-06T13:44:49.343Z,78
2018-02-06T13:45:49.236Z,78
2018-02-06T13:46:49.189Z,78
2018-02-06T13:47:49.117Z,78.1
2018-02-06T13:48:49.031Z,78.1
2018-02-06T13:49:48.960Z,78.1
2018-02-06T13:50:48.931Z,78.1
2018-02-06T13:51:48.843Z,78.1
2018-02-06T13:52:48.773Z,78.1
2018-02-06T13:53:48.690Z,78.2
2018-02-06T13:54:48.655Z,78.2
2018-02-06T13:55:48.568Z,78.2
2018-02-06T13:56:48.503Z,78.2
2018-02-06T13:57:48.438Z,78.3
2018-02-06T13:58:48.341Z,78.3
2018-02-06T13:59:48.310Z,78.3
2018-02-06T14:00:48.244Z,78.3
2018-02-06T14:01:48.135Z,78.3
2018-02-06T14:02:48.099Z,78.3
2018-02-06T14:03:48.018Z,78.3
2018-02-06T14:04:47.947Z,78.3
2018-02-06T14:05:47.895Z,78.3
2018-02-06T14:06:47.792Z,78.3
2018-02-06T14:07:47.741Z,78.3
2018-02-06T14:08:47.674Z,78.3
2018-02-06T14:09:47.620Z,78.3
2018-02-06T14:10:47.520Z,78.3
2018-02-06T14:11:47.482Z,78.4
2018-02-06T14:12:47.384Z,78.4
2018-02-06T14:13:47.330Z,78.4
2018-02-06T14:14:47.259Z,78.4
2018-02-06T14:15:47.192Z,78.3
2018-02-06T14:16:47.138Z,78.4
2018-02-06T14:17:47.035Z,78.3
2018-02-06T14:18:47.007Z,78.3
2018-02-06T14:19:46.896Z,78.4
2018-02-06T14:20:46.846Z,78.3
2018-02-06T14:21:46.800Z,78.3
2018-02-06T14:22:46.694Z,78.3
2018-02-06T14:23:46.693Z,78.3
2018-02-06T14:24:46.573Z,78.3
2018-02-06T14:25:46.502Z,78.3
2018-02-06T14:26:46.434Z,78.3
2018-02-06T14:27:46.380Z,78.3
2018-02-06T14:28:46.327Z,78.3
2018-02-06T14:29:46.249Z,78.3
2018-02-06T14:30:46.159Z,78.3
2018-02-06T14:31:46.093Z,78.3
2018-02-06T14:32:46.023Z,78.3
2018-02-06T14:33:45.951Z,78.3
2018-02-06T14:34:45.864Z,78.3
2018-02-06T14:35:45.829Z,78.3
2018-02-06T14:36:45.748Z,78.3
2018-02-06T14:37:45.656Z,78.2
2018-02-06T14:38:45.624Z,78.3
2018-02-06T14:39:45.518Z,78.2
2018-02-06T14:40:45.486Z,78.2
2018-02-06T14:41:45.404Z,78.2
2018-02-06T14:42:45.331Z,78.2
2018-02-06T14:43:45.267Z,78.1
2018-02-06T14:44:45.194Z,78.1
2018-02-06T14:45:45.106Z,78.1
2018-02-06T14:46:45.078Z,78.1
2018-02-06T14:47:44.971Z,78.1
2018-02-06T14:48:44.918Z,78.1
2018-02-06T14:49:44.850Z,78.1
2018-02-06T14:50:44.797Z,78.1
2018-02-06T14:51:44.695Z,78.1
2018-02-06T14:52:44.641Z,78.1
2018-02-06T14:53:44.587Z,78.1
2018-02-06T14:54:44.505Z,78
2018-02-06T14:55:44.452Z,78
2018-02-06T14:56:44.355Z,78
2018-02-06T14:57:44.284Z,77.9
2018-02-06T14:58:44.245Z,77.9
2018-02-06T14:59:44.162Z,77.9
